createdAt,value
2019-02-03T00:00:59.926Z,27.30
2019-02-03T00:02:00.004Z,26.60
2019-02-03T00:03:00.092Z,25.90
2019-02-03T00:04:00.189Z,26.70
2019-02-03T00:05:00.337Z,27.00
2019-02-03T00:06:00.358Z,25.80
2019-02-03T00:07:03.461Z,26.10
2019-02-03T00:08:00.528Z,26.10
2019-02-03T00:09:00.613Z,26.70
2019-02-03T00:10:00.718Z,26.50
2019-02-03T00:11:00.793Z,26.20
2019-02-03T00:12:00.889Z,26.10
2019-02-03T00:13:00.970Z,25.30
2019-02-03T00:14:01.054Z,26.50
2019-02-03T00:15:01.142Z,26.10
2019-02-03T00:16:01.231Z,27.30
2019-02-03T00:17:01.326Z,27.70
2019-02-03T00:18:01.404Z,27.90
2019-02-03T00:19:01.491Z,26.60
2019-02-03T00:20:01.583Z,26.10
2019-02-03T00:21:01.685Z,26.50
2019-02-03T00:22:01.774Z,27.00
2019-02-03T00:23:01.850Z,27.10
2019-02-03T00:24:01.937Z,26.70
2019-02-03T00:25:02.025Z,27.20
2019-02-03T00:26:02.105Z,27.10
2019-02-03T00:27:02.197Z,27.70
2019-02-03T00:28:02.284Z,26.50
2019-02-03T00:29:02.371Z,29.10
2019-02-03T00:30:02.459Z,28.50
2019-02-03T00:31:02.545Z,28.10
2019-02-03T00:32:02.632Z,27.60
2019-02-03T00:33:02.726Z,27.90
2019-02-03T00:34:02.817Z,29.00
2019-02-03T00:35:02.898Z,29.10
2019-02-03T00:36:02.991Z,28.20
2019-02-03T00:37:14.770Z,28.20
2019-02-03T00:38:03.248Z,29.40
2019-02-03T00:39:03.251Z,30.00
2019-02-03T00:40:03.408Z,29.80
2019-02-03T00:41:03.472Z,30.20
2019-02-03T00:42:03.510Z,30.30
2019-02-03T00:43:03.603Z,31.10
2019-02-03T00:44:03.691Z,30.30
2019-02-03T00:45:03.777Z,31.80
2019-02-03T00:46:03.864Z,31.40
2019-02-03T00:47:03.951Z,31.50
2019-02-03T00:48:04.042Z,32.50
2019-02-03T00:49:04.133Z,31.10
2019-02-03T00:50:04.215Z,31.40
2019-02-03T00:51:04.303Z,32.10
2019-02-03T00:52:04.386Z,32.40
2019-02-03T00:53:04.475Z,32.80
2019-02-03T00:54:04.563Z,33.60
2019-02-03T00:55:04.648Z,32.80
2019-02-03T00:56:04.738Z,33.20
2019-02-03T00:57:04.818Z,33.90
2019-02-03T00:58:04.894Z,34.60
2019-02-03T00:59:04.997Z,32.70
2019-02-03T01:00:05.084Z,33.90
2019-02-03T01:01:05.161Z,33.70
2019-02-03T01:02:05.261Z,34.50
2019-02-03T01:03:05.346Z,33.90
2019-02-03T01:04:05.450Z,34.20
2019-02-03T01:05:05.535Z,33.70
2019-02-03T01:06:05.632Z,34.30
2019-02-03T01:07:05.712Z,33.00
2019-02-03T01:08:05.802Z,34.40
2019-02-03T01:09:05.886Z,33.70
2019-02-03T01:10:05.982Z,35.10
2019-02-03T01:11:06.060Z,34.30
2019-02-03T01:12:06.147Z,33.50
2019-02-03T01:13:06.240Z,35.20
2019-02-03T01:14:06.325Z,33.90
2019-02-03T01:15:06.411Z,33.80
2019-02-03T01:16:06.498Z,34.20
2019-02-03T01:17:06.592Z,35.00
2019-02-03T01:18:06.679Z,33.00
2019-02-03T01:19:06.765Z,34.40
2019-02-03T01:20:06.856Z,33.60
2019-02-03T01:21:06.942Z,33.20
2019-02-03T01:22:07.030Z,34.70
2019-02-03T01:23:07.127Z,33.00
2019-02-03T01:24:07.202Z,33.80
2019-02-03T01:25:07.287Z,34.10
2019-02-03T01:26:07.372Z,33.20
2019-02-03T01:27:07.464Z,34.50
2019-02-03T01:28:07.549Z,33.60
2019-02-03T01:29:07.638Z,33.20
2019-02-03T01:30:07.737Z,33.10
2019-02-03T01:31:07.816Z,33.10
2019-02-03T01:32:07.902Z,32.90
2019-02-03T01:33:07.988Z,33.20
2019-02-03T01:34:08.077Z,34.20
2019-02-03T01:35:08.163Z,33.60
2019-02-03T01:36:08.250Z,35.40
2019-02-03T01:37:08.341Z,35.90
2019-02-03T01:38:08.426Z,34.10
2019-02-03T01:39:08.514Z,34.60
2019-02-03T01:40:08.602Z,35.40
2019-02-03T01:41:08.687Z,36.80
2019-02-03T01:42:08.773Z,36.80
2019-02-03T01:43:08.858Z,36.70
2019-02-03T01:44:08.945Z,36.90
2019-02-03T01:45:09.029Z,37.80
2019-02-03T01:46:09.121Z,38.10
2019-02-03T01:47:09.205Z,39.70
2019-02-03T01:48:09.290Z,39.40
2019-02-03T01:49:09.376Z,39.00
2019-02-03T01:50:09.471Z,38.90
2019-02-03T01:51:09.557Z,40.20
2019-02-03T01:52:09.647Z,41.70
2019-02-03T01:53:09.731Z,40.10
2019-02-03T01:54:09.821Z,40.70
2019-02-03T01:55:09.910Z,41.80
2019-02-03T01:56:09.989Z,40.70
2019-02-03T01:57:10.084Z,41.60
2019-02-03T01:58:10.181Z,41.30
2019-02-03T01:59:10.273Z,41.30
2019-02-03T02:00:10.357Z,42.00
2019-02-03T02:01:10.446Z,40.60
2019-02-03T02:02:10.534Z,41.30
2019-02-03T02:03:10.629Z,41.50
2019-02-03T02:04:10.715Z,40.10
2019-02-03T02:05:10.911Z,39.30
2019-02-03T02:06:10.886Z,40.00
2019-02-03T02:07:10.971Z,39.60
2019-02-03T02:08:11.059Z,37.60
2019-02-03T02:09:11.146Z,39.30
2019-02-03T02:10:11.234Z,38.20
2019-02-03T02:11:11.322Z,38.70
2019-02-03T02:12:11.401Z,36.80
2019-02-03T02:13:11.486Z,35.20
2019-02-03T02:14:11.570Z,34.90
2019-02-03T02:15:11.656Z,37.20
2019-02-03T02:16:11.755Z,36.30
2019-02-03T02:17:11.835Z,34.70
2019-02-03T02:18:11.919Z,36.40
2019-02-03T02:19:12.003Z,36.00
2019-02-03T02:20:12.092Z,34.60
2019-02-03T02:21:12.180Z,35.10
2019-02-03T02:22:12.270Z,35.70
2019-02-03T02:23:12.353Z,36.00
2019-02-03T02:24:12.444Z,35.00
2019-02-03T02:25:12.536Z,34.20
2019-02-03T02:26:12.616Z,32.80
2019-02-03T02:27:12.704Z,31.80
2019-02-03T02:28:12.785Z,33.20
2019-02-03T02:29:12.874Z,31.20
2019-02-03T02:30:12.963Z,31.70
2019-02-03T02:31:13.049Z,32.90
2019-02-03T02:32:13.150Z,32.40
2019-02-03T02:33:13.231Z,32.10
2019-02-03T02:34:13.313Z,32.30
2019-02-03T02:35:13.410Z,33.30
2019-02-03T02:36:13.483Z,33.20
2019-02-03T02:37:13.569Z,31.90
2019-02-03T02:38:13.657Z,33.70
2019-02-03T02:39:13.741Z,31.90
2019-02-03T02:40:13.830Z,32.10
2019-02-03T02:41:13.924Z,32.50
2019-02-03T02:42:14.004Z,32.30
2019-02-03T02:43:14.090Z,32.90
2019-02-03T02:44:14.175Z,32.20
2019-02-03T02:45:14.258Z,32.30
2019-02-03T02:46:14.344Z,32.60
2019-02-03T02:47:14.430Z,32.30
2019-02-03T02:48:14.530Z,32.30
2019-02-03T02:49:14.615Z,32.40
2019-02-03T02:50:14.695Z,33.70
2019-02-03T02:51:14.792Z,32.90
2019-02-03T02:52:14.872Z,34.40
2019-02-03T02:53:14.958Z,34.20
2019-02-03T02:54:15.049Z,33.70
2019-02-03T02:55:15.289Z,33.00
2019-02-03T02:56:15.237Z,33.40
2019-02-03T02:57:15.326Z,33.20
2019-02-03T02:58:15.414Z,32.40
2019-02-03T02:59:15.506Z,32.90
2019-02-03T03:00:17.434Z,32.10
2019-02-03T03:01:15.674Z,32.60
2019-02-03T03:02:15.766Z,32.60
2019-02-03T03:03:15.857Z,32.80
2019-02-03T03:04:15.939Z,32.80
2019-02-03T03:05:16.026Z,33.50
2019-02-03T03:06:16.120Z,33.20
2019-02-03T03:07:16.199Z,33.80
2019-02-03T03:08:19.201Z,33.20
2019-02-03T03:09:16.372Z,33.40
2019-02-03T03:10:16.460Z,34.20
2019-02-03T03:11:16.545Z,34.60
2019-02-03T03:12:16.628Z,35.60
2019-02-03T03:13:16.708Z,33.60
2019-02-03T03:14:16.799Z,34.70
2019-02-03T03:15:16.883Z,35.40
2019-02-03T03:16:16.969Z,35.50
2019-02-03T03:17:17.057Z,34.30
2019-02-03T03:18:17.143Z,35.70
2019-02-03T03:19:17.235Z,34.90
2019-02-03T03:20:17.321Z,35.50
2019-02-03T03:21:17.408Z,36.20
2019-02-03T03:22:17.494Z,36.90
2019-02-03T03:23:17.587Z,36.30
2019-02-03T03:24:17.676Z,37.50
2019-02-03T03:25:17.759Z,35.90
2019-02-03T03:26:17.846Z,35.90
2019-02-03T03:27:17.935Z,35.60
2019-02-03T03:28:18.021Z,37.20
2019-02-03T03:29:18.108Z,36.00
2019-02-03T03:30:18.209Z,36.40
2019-02-03T03:31:18.310Z,36.20
2019-02-03T03:32:18.395Z,35.20
2019-02-03T03:33:18.483Z,35.60
2019-02-03T03:34:18.565Z,36.60
2019-02-03T03:35:18.655Z,34.90
2019-02-03T03:36:18.747Z,37.20
2019-02-03T03:37:18.834Z,35.90
2019-02-03T03:38:31.324Z,35.60
2019-02-03T03:39:19.003Z,36.10
2019-02-03T03:40:19.095Z,36.30
2019-02-03T03:41:19.185Z,36.80
2019-02-03T03:42:19.273Z,36.20
2019-02-03T03:43:19.359Z,36.90
2019-02-03T03:44:19.445Z,38.00
2019-02-03T03:45:19.533Z,37.70
2019-02-03T03:46:19.620Z,37.70
2019-02-03T03:47:19.710Z,37.70
2019-02-03T03:48:19.806Z,38.10
2019-02-03T03:49:19.885Z,36.70
2019-02-03T03:50:19.962Z,37.30
2019-02-03T03:51:20.049Z,35.90
2019-02-03T03:52:20.137Z,36.20
2019-02-03T03:53:20.221Z,36.60
2019-02-03T03:54:20.306Z,36.50
2019-02-03T03:55:20.393Z,36.10
2019-02-03T03:56:20.476Z,36.90
2019-02-03T03:57:20.563Z,36.40
2019-02-03T03:58:20.656Z,36.10
2019-02-03T03:59:20.740Z,37.40
2019-02-03T04:00:20.821Z,36.90
2019-02-03T04:01:20.912Z,36.30
2019-02-03T04:02:20.997Z,36.10
2019-02-03T04:03:21.086Z,35.30
2019-02-03T04:04:21.174Z,36.60
2019-02-03T04:05:21.261Z,35.70
2019-02-03T04:06:21.347Z,36.00
2019-02-03T04:07:21.438Z,36.80
2019-02-03T04:08:21.520Z,37.00
2019-02-03T04:09:21.596Z,36.30
2019-02-03T04:10:21.684Z,37.00
2019-02-03T04:11:21.772Z,36.00
2019-02-03T04:12:21.862Z,35.80
2019-02-03T04:13:21.947Z,36.00
2019-02-03T04:14:22.052Z,35.30
2019-02-03T04:15:22.106Z,34.70
2019-02-03T04:16:22.193Z,36.00
2019-02-03T04:17:22.284Z,35.60
2019-02-03T04:18:22.367Z,35.20
2019-02-03T04:19:22.456Z,35.90
2019-02-03T04:20:22.545Z,35.00
2019-02-03T04:21:22.634Z,34.80
2019-02-03T04:22:22.719Z,35.50
2019-02-03T04:23:22.806Z,36.40
2019-02-03T04:24:22.905Z,35.80
2019-02-03T04:25:22.982Z,35.50
2019-02-03T04:26:23.072Z,34.60
2019-02-03T04:27:23.154Z,33.80
2019-02-03T04:28:23.241Z,36.20
2019-02-03T04:29:23.329Z,35.20
2019-02-03T04:30:23.417Z,34.10
2019-02-03T04:31:23.504Z,33.50
2019-02-03T04:32:23.594Z,34.20
2019-02-03T04:33:23.678Z,34.10
2019-02-03T04:34:23.765Z,34.80
2019-02-03T04:35:23.994Z,33.40
2019-02-03T04:36:23.937Z,33.70
2019-02-03T04:37:24.023Z,34.00
2019-02-03T04:38:24.115Z,33.00
2019-02-03T04:39:24.207Z,32.10
2019-02-03T04:40:24.294Z,31.90
2019-02-03T04:41:24.387Z,32.30
2019-02-03T04:42:24.477Z,31.20
2019-02-03T04:43:24.554Z,31.30
2019-02-03T04:44:24.646Z,31.30
2019-02-03T04:45:24.739Z,31.30
2019-02-03T04:46:24.818Z,31.20
2019-02-03T04:47:24.905Z,31.70
2019-02-03T04:48:24.995Z,31.40
2019-02-03T04:49:25.089Z,31.40
2019-02-03T04:50:25.162Z,31.20
2019-02-03T04:51:25.251Z,32.00
2019-02-03T04:52:25.334Z,32.10
2019-02-03T04:53:25.422Z,33.00
2019-02-03T04:54:25.506Z,33.00
2019-02-03T04:55:25.593Z,32.60
2019-02-03T04:56:25.679Z,32.20
2019-02-03T04:57:25.764Z,33.30
2019-02-03T04:58:25.869Z,31.80
2019-02-03T04:59:25.944Z,31.30
2019-02-03T05:00:26.026Z,31.80
2019-02-03T05:01:26.108Z,30.20
2019-02-03T05:02:26.192Z,29.30
2019-02-03T05:03:26.280Z,28.80
2019-02-03T05:04:26.376Z,28.80
2019-02-03T05:05:26.452Z,28.20
2019-02-03T05:06:26.541Z,28.80
2019-02-03T05:07:26.628Z,28.20
2019-02-03T05:08:26.710Z,28.80
2019-02-03T05:09:26.796Z,29.30
2019-02-03T05:10:26.882Z,28.10
2019-02-03T05:11:26.971Z,28.20
2019-02-03T05:12:27.056Z,27.80
2019-02-03T05:13:27.143Z,28.30
2019-02-03T05:14:27.239Z,28.60
2019-02-03T05:15:27.309Z,29.20
2019-02-03T05:16:27.411Z,28.70
2019-02-03T05:17:27.488Z,28.70
2019-02-03T05:18:27.574Z,28.00
2019-02-03T05:19:27.662Z,28.80
2019-02-03T05:20:27.747Z,28.80
2019-02-03T05:21:27.827Z,29.10
2019-02-03T05:22:27.919Z,28.60
2019-02-03T05:23:28.011Z,29.30
2019-02-03T05:24:28.102Z,27.20
2019-02-03T05:25:28.189Z,29.10
2019-02-03T05:26:28.291Z,29.00
2019-02-03T05:27:28.361Z,28.50
2019-02-03T05:28:28.434Z,30.40
2019-02-03T05:29:28.515Z,28.50
2019-02-03T05:30:28.600Z,28.70
2019-02-03T05:31:28.691Z,29.10
2019-02-03T05:32:28.780Z,28.50
2019-02-03T05:33:28.865Z,28.60
2019-02-03T05:34:28.957Z,29.00
2019-02-03T05:35:29.036Z,27.90
2019-02-03T05:36:29.131Z,29.10
2019-02-03T05:37:29.207Z,29.60
2019-02-03T05:38:29.299Z,29.80
2019-02-03T05:39:29.386Z,29.70
2019-02-03T05:40:29.473Z,29.80
2019-02-03T05:41:29.560Z,30.60
2019-02-03T05:42:29.646Z,28.80
2019-02-03T05:43:29.728Z,29.80
2019-02-03T05:44:29.817Z,28.80
2019-02-03T05:45:29.906Z,30.10
2019-02-03T05:46:29.992Z,29.00
2019-02-03T05:47:30.079Z,28.30
2019-02-03T05:48:30.166Z,27.90
2019-02-03T05:49:30.248Z,28.70
2019-02-03T05:50:30.337Z,27.70
2019-02-03T05:51:30.441Z,27.90
2019-02-03T05:52:30.528Z,28.90
2019-02-03T05:53:30.618Z,29.60
2019-02-03T05:54:30.704Z,28.00
2019-02-03T05:55:30.793Z,27.40
2019-02-03T05:56:30.881Z,27.70
2019-02-03T05:57:30.971Z,27.70
2019-02-03T05:58:31.056Z,27.70
2019-02-03T05:59:31.142Z,28.40
2019-02-03T06:00:31.230Z,29.30
2019-02-03T06:01:31.319Z,28.70
2019-02-03T06:02:31.403Z,28.30
2019-02-03T06:03:31.492Z,29.70
2019-02-03T06:04:31.575Z,29.10
2019-02-03T06:05:31.668Z,28.70
2019-02-03T06:06:31.755Z,29.40
2019-02-03T06:07:31.843Z,29.30
2019-02-03T06:08:31.930Z,28.60
2019-02-03T06:09:36.633Z,29.30
2019-02-03T06:10:32.103Z,29.30
2019-02-03T06:11:32.189Z,28.90
2019-02-03T06:12:32.266Z,28.50
2019-02-03T06:13:32.371Z,28.60
2019-02-03T06:14:32.436Z,28.40
2019-02-03T06:15:32.521Z,27.60
2019-02-03T06:16:32.617Z,28.80
2019-02-03T06:17:32.698Z,27.90
2019-02-03T06:18:32.785Z,28.20
2019-02-03T06:19:32.874Z,27.90
2019-02-03T06:20:32.957Z,27.40
2019-02-03T06:21:33.043Z,28.40
2019-02-03T06:22:33.129Z,26.90
2019-02-03T06:23:33.212Z,26.40
2019-02-03T06:24:33.301Z,26.90
2019-02-03T06:25:33.387Z,27.70
2019-02-03T06:26:33.473Z,28.30
2019-02-03T06:27:33.564Z,28.50
2019-02-03T06:28:33.646Z,26.80
2019-02-03T06:29:33.745Z,28.00
2019-02-03T06:30:33.819Z,28.10
2019-02-03T06:31:33.904Z,28.60
2019-02-03T06:32:33.990Z,27.90
2019-02-03T06:33:34.082Z,27.10
2019-02-03T06:34:34.169Z,27.50
2019-02-03T06:35:34.253Z,27.90
2019-02-03T06:36:34.343Z,27.40
2019-02-03T06:37:34.424Z,27.00
2019-02-03T06:38:34.510Z,27.60
2019-02-03T06:39:34.597Z,27.30
2019-02-03T06:40:34.683Z,28.30
2019-02-03T06:41:34.770Z,27.20
2019-02-03T06:42:34.856Z,26.70
2019-02-03T06:43:34.943Z,28.40
2019-02-03T06:44:35.032Z,26.70
2019-02-03T06:45:35.117Z,27.60
2019-02-03T06:46:35.210Z,28.10
2019-02-03T06:47:35.295Z,27.40
2019-02-03T06:48:35.383Z,26.50
2019-02-03T06:49:35.472Z,26.30
2019-02-03T06:50:35.558Z,27.10
2019-02-03T06:51:35.643Z,27.10
2019-02-03T06:52:35.731Z,26.20
2019-02-03T06:53:35.821Z,25.80
2019-02-03T06:54:35.911Z,25.40
2019-02-03T06:55:35.998Z,25.00
2019-02-03T06:56:36.092Z,25.20
2019-02-03T06:57:36.187Z,25.30
2019-02-03T06:58:36.266Z,24.10
2019-02-03T06:59:36.374Z,23.40
2019-02-03T07:00:36.444Z,23.90
2019-02-03T07:01:36.526Z,26.20
2019-02-03T07:02:36.613Z,25.40
2019-02-03T07:03:36.700Z,24.60
2019-02-03T07:04:36.789Z,26.20
2019-02-03T07:05:36.876Z,24.50
2019-02-03T07:06:36.962Z,25.00
2019-02-03T07:07:37.047Z,24.00
2019-02-03T07:08:37.136Z,23.70
2019-02-03T07:09:37.229Z,24.00
2019-02-03T07:10:37.312Z,24.20
2019-02-03T07:11:37.398Z,22.60
2019-02-03T07:12:37.484Z,22.90
2019-02-03T07:13:37.571Z,24.50
2019-02-03T07:14:37.657Z,26.50
2019-02-03T07:15:37.747Z,34.40
2019-02-03T07:16:41.019Z,24.30
2019-02-03T07:17:37.921Z,23.10
2019-02-03T07:18:38.008Z,27.10
2019-02-03T07:19:38.126Z,22.70
2019-02-03T07:20:38.217Z,22.70
2019-02-03T07:21:38.304Z,22.50
2019-02-03T07:22:38.393Z,24.30
2019-02-03T07:23:38.477Z,25.10
2019-02-03T07:24:38.564Z,22.20
2019-02-03T07:25:38.653Z,22.30
2019-02-03T07:26:38.738Z,22.40
2019-02-03T07:27:38.853Z,21.10
2019-02-03T07:28:38.911Z,23.60
2019-02-03T07:29:39.018Z,21.30
2019-02-03T07:30:39.099Z,19.20
2019-02-03T07:31:39.189Z,21.00
2019-02-03T07:32:39.276Z,21.30
2019-02-03T07:33:39.364Z,21.40
2019-02-03T07:34:39.450Z,20.80
2019-02-03T07:35:39.532Z,22.10
2019-02-03T07:36:39.621Z,21.30
2019-02-03T07:37:39.710Z,21.90
2019-02-03T07:38:39.799Z,21.60
2019-02-03T07:39:39.887Z,20.90
2019-02-03T07:40:39.970Z,20.40
2019-02-03T07:41:40.058Z,20.80
2019-02-03T07:42:40.145Z,19.60
2019-02-03T07:43:40.230Z,20.70
2019-02-03T07:44:40.321Z,20.60
2019-02-03T07:45:40.405Z,18.90
2019-02-03T07:46:40.494Z,19.90
2019-02-03T07:47:40.583Z,19.10
2019-02-03T07:48:40.692Z,18.90
2019-02-03T07:49:40.751Z,19.80
2019-02-03T07:50:40.841Z,19.80
2019-02-03T07:51:40.929Z,19.90
2019-02-03T07:52:41.009Z,19.20
2019-02-03T07:53:41.104Z,19.90
2019-02-03T07:54:41.186Z,20.80
2019-02-03T07:55:41.272Z,20.60
2019-02-03T07:56:41.357Z,19.80
2019-02-03T07:57:41.444Z,18.30
2019-02-03T07:58:41.542Z,17.70
2019-02-03T07:59:41.626Z,18.50
2019-02-03T08:00:41.766Z,18.50
2019-02-03T08:01:41.790Z,17.70
2019-02-03T08:02:41.875Z,18.40
2019-02-03T08:03:41.960Z,18.10
2019-02-03T08:04:42.046Z,18.40
2019-02-03T08:05:42.132Z,18.30
2019-02-03T08:06:42.216Z,18.40
2019-02-03T08:07:42.305Z,18.40
2019-02-03T08:08:42.391Z,19.20
2019-02-03T08:09:42.477Z,18.10
2019-02-03T08:10:42.565Z,19.30
2019-02-03T08:11:42.650Z,19.30
2019-02-03T08:12:42.727Z,18.20
2019-02-03T08:13:42.823Z,19.10
2019-02-03T08:14:42.907Z,19.20
2019-02-03T08:15:42.997Z,18.50
2019-02-03T08:16:43.082Z,19.20
2019-02-03T08:17:43.173Z,18.90
2019-02-03T08:18:43.258Z,19.00
2019-02-03T08:19:43.342Z,19.20
2019-02-03T08:20:43.429Z,18.80
2019-02-03T08:21:43.516Z,19.00
2019-02-03T08:22:43.604Z,20.10
2019-02-03T08:23:43.691Z,19.90
2019-02-03T08:24:43.776Z,19.10
2019-02-03T08:25:43.871Z,20.50
2019-02-03T08:26:43.961Z,20.30
2019-02-03T08:27:44.043Z,20.30
2019-02-03T08:28:44.134Z,20.20
2019-02-03T08:29:44.218Z,20.80
2019-02-03T08:30:44.310Z,19.50
2019-02-03T08:31:44.397Z,19.80
2019-02-03T08:32:44.484Z,21.10
2019-02-03T08:33:44.574Z,21.30
2019-02-03T08:34:44.658Z,21.00
2019-02-03T08:35:44.749Z,21.30
2019-02-03T08:36:44.854Z,20.70
2019-02-03T08:37:44.940Z,20.50
2019-02-03T08:38:45.027Z,21.10
2019-02-03T08:39:45.114Z,21.40
2019-02-03T08:40:45.202Z,21.40
2019-02-03T08:41:45.285Z,20.60
2019-02-03T08:42:45.373Z,20.80
2019-02-03T08:43:45.460Z,21.50
2019-02-03T08:44:45.551Z,21.00
2019-02-03T08:45:45.639Z,21.20
2019-02-03T08:46:45.727Z,21.60
2019-02-03T08:47:45.812Z,21.70
2019-02-03T08:48:45.899Z,22.40
2019-02-03T08:49:45.991Z,21.90
2019-02-03T08:50:46.078Z,22.00
2019-02-03T08:51:46.165Z,22.70
2019-02-03T08:52:46.256Z,22.40
2019-02-03T08:53:46.335Z,21.70
2019-02-03T08:54:57.669Z,22.30
2019-02-03T08:55:46.553Z,21.70
2019-02-03T08:56:46.637Z,22.10
2019-02-03T08:57:46.731Z,23.00
2019-02-03T08:58:46.814Z,22.20
2019-02-03T08:59:46.900Z,23.20
2019-02-03T09:00:46.987Z,22.80
2019-02-03T09:01:47.094Z,22.60
2019-02-03T09:02:47.184Z,23.40
2019-02-03T09:03:47.288Z,22.70
2019-02-03T09:04:47.365Z,23.80
2019-02-03T09:05:47.450Z,23.90
2019-02-03T09:06:47.556Z,23.20
2019-02-03T09:07:47.641Z,23.30
2019-02-03T09:08:47.730Z,22.90
2019-02-03T09:09:47.816Z,24.00
2019-02-03T09:10:48.908Z,23.60
2019-02-03T09:11:47.981Z,23.90
2019-02-03T09:12:48.080Z,23.60
2019-02-03T09:13:48.170Z,31.10
2019-02-03T09:14:48.247Z,36.00
2019-02-03T09:15:48.443Z,56.40
2019-02-03T09:16:48.504Z,22.30
2019-02-03T09:17:48.531Z,22.90
2019-02-03T09:18:48.621Z,22.10
2019-02-03T09:19:48.832Z,21.80
2019-02-03T09:20:48.795Z,20.90
2019-02-03T09:21:48.882Z,21.40
2019-02-03T09:22:48.973Z,22.10
2019-02-03T09:23:49.064Z,21.10
2019-02-03T09:24:49.150Z,21.20
2019-02-03T09:25:49.236Z,21.70
2019-02-03T09:26:49.342Z,21.30
2019-02-03T09:27:49.426Z,21.20
2019-02-03T09:28:49.511Z,21.50
2019-02-03T09:29:49.602Z,21.60
2019-02-03T09:30:49.682Z,22.10
2019-02-03T09:31:49.769Z,20.90
2019-02-03T09:32:49.860Z,21.00
2019-02-03T09:33:49.950Z,20.10
2019-02-03T09:34:50.033Z,19.80
2019-02-03T09:35:50.118Z,19.60
2019-02-03T09:36:50.209Z,20.40
2019-02-03T09:37:50.295Z,18.00
2019-02-03T09:38:50.380Z,19.20
2019-02-03T09:39:50.464Z,18.10
2019-02-03T09:40:59.701Z,18.40
2019-02-03T09:41:50.644Z,18.90
2019-02-03T09:42:50.751Z,17.90
2019-02-03T09:43:50.839Z,17.70
2019-02-03T09:44:50.931Z,16.30
2019-02-03T09:45:51.018Z,16.80
2019-02-03T09:46:51.106Z,16.00
2019-02-03T09:47:51.192Z,16.70
2019-02-03T09:48:51.281Z,15.80
2019-02-03T09:49:51.366Z,17.40
2019-02-03T09:50:51.461Z,17.60
2019-02-03T09:51:51.546Z,16.00
2019-02-03T09:52:51.633Z,16.50
2019-02-03T09:53:51.719Z,16.50
2019-02-03T09:54:51.804Z,15.00
2019-02-03T09:55:51.895Z,16.30
2019-02-03T09:56:51.983Z,16.50
2019-02-03T09:57:52.096Z,17.10
2019-02-03T09:58:52.187Z,16.70
2019-02-03T09:59:52.279Z,15.90
2019-02-03T10:00:52.361Z,17.00
2019-02-03T10:01:52.446Z,17.30
2019-02-03T10:02:52.529Z,18.70
2019-02-03T10:03:52.615Z,17.70
2019-02-03T10:04:52.709Z,16.90
2019-02-03T10:05:52.795Z,16.90
2019-02-03T10:06:52.881Z,17.00
2019-02-03T10:07:52.967Z,16.60
2019-02-03T10:08:53.055Z,15.70
2019-02-03T10:09:53.141Z,15.80
2019-02-03T10:10:53.232Z,15.90
2019-02-03T10:11:53.325Z,16.10
2019-02-03T10:12:53.412Z,15.90
2019-02-03T10:13:53.503Z,15.70
2019-02-03T10:14:53.591Z,15.50
2019-02-03T10:15:53.685Z,14.30
2019-02-03T10:16:53.760Z,14.90
2019-02-03T10:17:53.854Z,14.50
2019-02-03T10:18:53.942Z,15.00
2019-02-03T10:19:54.026Z,14.70
2019-02-03T10:20:54.125Z,15.00
2019-02-03T10:21:54.209Z,14.40
2019-02-03T10:22:54.290Z,14.50
2019-02-03T10:23:54.379Z,15.50
2019-02-03T10:24:54.468Z,15.20
2019-02-03T10:25:55.450Z,13.90
2019-02-03T10:26:54.766Z,15.00
2019-02-03T10:27:54.738Z,14.70
2019-02-03T10:28:54.844Z,13.60
2019-02-03T10:29:55.032Z,15.00
2019-02-03T10:30:55.020Z,14.80
2019-02-03T10:31:55.107Z,14.40
2019-02-03T10:32:55.221Z,13.90
2019-02-03T10:33:55.284Z,15.20
2019-02-03T10:34:55.373Z,14.40
2019-02-03T10:35:55.465Z,14.60
2019-02-03T10:36:55.550Z,14.30
2019-02-03T10:37:55.642Z,13.30
2019-02-03T10:38:55.728Z,14.50
2019-02-03T10:39:55.817Z,13.10
2019-02-03T10:40:55.912Z,13.40
2019-02-03T10:41:55.994Z,14.80
2019-02-03T10:42:56.101Z,14.10
2019-02-03T10:43:56.519Z,13.60
2019-02-03T10:44:56.282Z,13.60
2019-02-03T10:45:56.370Z,14.50
2019-02-03T10:46:56.579Z,13.60
2019-02-03T10:47:56.548Z,14.00
2019-02-03T10:48:56.634Z,12.40
2019-02-03T10:49:56.724Z,12.80
2019-02-03T10:50:56.816Z,13.70
2019-02-03T10:51:56.901Z,14.10
2019-02-03T10:52:57.001Z,13.70
2019-02-03T10:53:57.095Z,13.90
2019-02-03T10:54:57.180Z,14.00
2019-02-03T10:55:57.268Z,13.60
2019-02-03T10:56:57.356Z,14.90
2019-02-03T10:57:57.447Z,14.40
2019-02-03T10:58:57.536Z,14.20
2019-02-03T10:59:57.621Z,16.40
2019-02-03T11:00:57.710Z,14.40
2019-02-03T11:01:57.800Z,14.60
2019-02-03T11:02:57.887Z,14.40
2019-02-03T11:03:57.974Z,14.90
2019-02-03T11:04:58.061Z,15.70
2019-02-03T11:05:59.500Z,18.50
2019-02-03T11:06:58.240Z,16.20
2019-02-03T11:07:58.326Z,16.00
2019-02-03T11:08:58.415Z,14.00
2019-02-03T11:09:58.503Z,14.80
2019-02-03T11:10:58.591Z,14.30
2019-02-03T11:11:58.682Z,15.90
2019-02-03T11:12:58.777Z,16.30
2019-02-03T11:13:58.858Z,16.60
2019-02-03T11:14:58.946Z,15.10
2019-02-03T11:15:59.035Z,15.80
2019-02-03T11:16:59.124Z,15.90
2019-02-03T11:17:59.211Z,15.80
2019-02-03T11:18:59.308Z,16.20
2019-02-03T11:19:59.392Z,15.90
2019-02-03T11:20:59.481Z,16.20
2019-02-03T11:21:59.570Z,16.00
2019-02-03T11:22:59.660Z,16.00
2019-02-03T11:23:59.747Z,15.70
2019-02-03T11:24:59.833Z,15.60
2019-02-03T11:26:00.305Z,15.40
2019-02-03T11:27:00.001Z,14.80
2019-02-03T11:28:00.088Z,15.10
2019-02-03T11:29:00.172Z,14.20
2019-02-03T11:30:00.325Z,14.70
2019-02-03T11:31:00.347Z,15.20
2019-02-03T11:32:00.435Z,15.60
2019-02-03T11:33:06.941Z,15.20
2019-02-03T11:34:00.612Z,14.10
2019-02-03T11:35:00.701Z,14.40
2019-02-03T11:36:00.791Z,14.40
2019-02-03T11:37:00.881Z,13.80
2019-02-03T11:38:00.967Z,15.10
2019-02-03T11:39:01.055Z,14.40
2019-02-03T11:40:01.144Z,16.90
2019-02-03T11:41:01.237Z,17.20
2019-02-03T11:42:01.317Z,13.80
2019-02-03T11:43:01.406Z,13.40
2019-02-03T11:44:01.489Z,13.60
2019-02-03T11:45:01.580Z,13.50
2019-02-03T11:46:01.667Z,13.80
2019-02-03T11:47:01.753Z,14.60
2019-02-03T11:48:01.851Z,14.60
2019-02-03T11:49:01.932Z,13.70
2019-02-03T11:50:02.014Z,13.80
2019-02-03T11:51:02.099Z,16.60
2019-02-03T11:52:02.188Z,15.00
2019-02-03T11:53:02.278Z,14.10
2019-02-03T11:54:02.367Z,12.90
2019-02-03T11:55:02.454Z,12.40
2019-02-03T11:56:02.541Z,12.80
2019-02-03T11:57:02.632Z,12.30
2019-02-03T11:58:02.720Z,12.80
2019-02-03T11:59:02.809Z,12.80
2019-02-03T12:00:02.901Z,12.10
2019-02-03T12:01:02.982Z,12.50
2019-02-03T12:02:03.074Z,12.10
2019-02-03T12:03:03.154Z,12.70
2019-02-03T12:04:03.252Z,12.90
2019-02-03T12:05:03.349Z,12.70
2019-02-03T12:06:03.451Z,12.10
2019-02-03T12:07:03.527Z,12.00
2019-02-03T12:08:03.617Z,12.00
2019-02-03T12:09:03.710Z,12.20
2019-02-03T12:10:03.807Z,13.00
2019-02-03T12:11:03.960Z,12.00
2019-02-03T12:12:03.989Z,12.30
2019-02-03T12:13:04.079Z,12.70
2019-02-03T12:14:04.400Z,12.10
2019-02-03T12:15:04.251Z,12.10
2019-02-03T12:16:04.382Z,11.60
2019-02-03T12:17:04.490Z,11.00
2019-02-03T12:18:04.574Z,12.50
2019-02-03T12:19:04.665Z,12.10
2019-02-03T12:20:04.752Z,12.40
2019-02-03T12:21:04.843Z,12.90
2019-02-03T12:22:04.933Z,12.50
2019-02-03T12:23:05.026Z,12.00
2019-02-03T12:24:05.183Z,12.20
2019-02-03T12:25:05.243Z,13.00
2019-02-03T12:26:06.925Z,12.80
2019-02-03T12:27:05.419Z,12.90
2019-02-03T12:28:05.538Z,12.20
2019-02-03T12:29:05.590Z,12.90
2019-02-03T12:30:05.678Z,13.10
2019-02-03T12:31:05.779Z,12.50
2019-02-03T12:32:05.927Z,12.70
2019-02-03T12:33:06.042Z,13.20
2019-02-03T12:34:06.220Z,12.60
2019-02-03T12:35:07.092Z,12.20
2019-02-03T12:36:07.100Z,12.50
2019-02-03T12:37:06.444Z,13.70
2019-02-03T12:38:06.547Z,13.50
2019-02-03T12:39:06.647Z,13.60
2019-02-03T12:40:06.717Z,13.30
2019-02-03T12:41:06.799Z,13.90
2019-02-03T12:42:13.020Z,13.10
2019-02-03T12:43:06.992Z,13.00
2019-02-03T12:44:07.077Z,13.70
2019-02-03T12:45:07.169Z,13.50
2019-02-03T12:46:07.262Z,13.10
2019-02-03T12:47:07.350Z,13.20
2019-02-03T12:48:07.443Z,12.60
2019-02-03T12:49:07.604Z,12.90
2019-02-03T12:50:07.665Z,12.40
2019-02-03T12:51:07.755Z,13.00
2019-02-03T12:52:07.846Z,12.90
2019-02-03T12:53:07.931Z,11.70
2019-02-03T12:54:08.020Z,12.10